Time;durP1;ratioP1;P1;durP2;ratioP2;P2;SDS_P1;SDS_P2;PMS_P1;PMS_P2;Temp;Humidity;BMP_temperature;BMP_pressure;BME280_temperature;BME280_humidity;BME280_pressure;Samples;Min_cycle;Max_cycle;Signal;HPM_P1;HPM_P2
2022/12/14 05:31:33;;;;;;;14.60;9.35;;;3.40;86.50;;;;;;5420061;23;20455;-84
2022/12/14 05:34:06;;;;;;;18.55;10.45;;;3.30;86.20;;;;;;4957858;28;20605;-84
2022/12/14 05:36:31;;;;;;;16.40;10.88;;;3.20;86.10;;;;;;4954766;29;20038;-84
2022/12/14 05:38:57;;;;;;;16.30;9.20;;;3.20;86.20;;;;;;4956484;29;20035;-84
2022/12/14 05:41:23;;;;;;;13.68;9.07;;;3.20;86.00;;;;;;4957964;28;20450;-84
2022/12/14 05:43:48;;;;;;;16.33;10.05;;;3.20;86.60;;;;;;4961084;28;20027;-83
2022/12/14 05:46:14;;;;;;;19.80;10.40;;;3.20;86.30;;;;;;4982580;28;20495;-83
2022/12/14 05:48:39;;;;;;;14.45;9.25;;;3.20;86.60;;;;;;4960408;28;20019;-83
2022/12/14 05:51:10;;;;;;;20.70;9.55;;;3.20;86.90;;;;;;4961043;29;20031;-83
2022/12/14 05:53:37;;;;;;;16.77;9.65;;;3.20;86.50;;;;;;4963928;28;20034;-83
2022/12/14 05:56:05;;;;;;;15.80;9.45;;;3.20;86.70;;;;;;4942716;29;20067;-82
2022/12/14 05:58:32;;;;;;;14.25;9.68;;;3.20;86.70;;;;;;4945952;29;20051;-82
2022/12/14 06:01:03;;;;;;;20.13;10.32;;;3.20;86.50;;;;;;4943626;28;20039;-83
2022/12/14 06:03:29;;;;;;;16.30;8.50;;;3.20;86.20;;;;;;4956343;28;20113;-80
2022/12/14 06:06:01;;;;;;;15.95;9.45;;;3.30;86.90;;;;;;4979372;28;20025;-86
2022/12/14 06:08:29;;;;;;;19.63;11.05;;;3.30;86.50;;;;;;4970256;28;20031;-84
2022/12/14 06:11:01;;;;;;;18.10;10.32;;;3.40;86.40;;;;;;4946463;28;20031;-80
2022/12/14 06:13:27;;;;;;;21.88;12.27;;;3.40;86.00;;;;;;4961368;28;20050;-89
2022/12/14 06:15:52;;;;;;;32.25;17.70;;;3.30;85.90;;;;;;4980487;28;20086;-80
2022/12/14 06:18:18;;;;;;;29.42;17.05;;;3.20;85.40;;;;;;4957232;29;20027;-79
2022/12/14 06:20:44;;;;;;;31.70;18.63;;;3.20;85.90;;;;;;4972782;28;20410;-79
2022/12/14 06:23:09;;;;;;;25.02;15.40;;;3.20;86.10;;;;;;4971970;28;20023;-82
2022/12/14 06:25:35;;;;;;;23.40;12.07;;;3.20;86.10;;;;;;4964972;28;20031;-78
2022/12/14 06:28:01;;;;;;;21.25;11.75;;;3.20;86.00;;;;;;4974285;28;20034;-80
2022/12/14 06:30:27;;;;;;;18.50;11.43;;;3.20;86.10;;;;;;4957191;28;20039;-81
2022/12/14 06:32:53;;;;;;;21.77;10.02;;;3.20;86.10;;;;;;4949508;28;20491;-81
2022/12/14 06:35:18;;;;;;;21.10;10.80;;;3.20;85.90;;;;;;4961248;28;20121;-84
2022/12/14 06:37:44;;;;;;;19.08;11.07;;;3.20;85.20;;;;;;4981051;28;20041;-85
2022/12/14 06:40:10;;;;;;;43.05;26.92;;;3.10;85.30;;;;;;4965942;28;20031;-85
2022/12/14 06:42:35;;;;;;;28.95;19.13;;;3.10;86.00;;;;;;4960932;28;20027;-81
2022/12/14 06:45:01;;;;;;;37.10;24.70;;;3.10;86.00;;;;;;4957558;28;20027;-84
2022/12/14 06:47:27;;;;;;;20.70;11.95;;;3.20;86.30;;;;;;4965466;28;20039;-86
2022/12/14 06:49:52;;;;;;;21.80;11.45;;;3.20;86.40;;;;;;4962627;28;20027;-86
2022/12/14 06:52:18;;;;;;;25.02;12.82;;;3.20;86.60;;;;;;4941220;29;20028;-85
2022/12/14 06:54:44;;;;;;;18.73;11.15;;;3.30;86.20;;;;;;4953796;28;20030;-86
2022/12/14 06:57:09;;;;;;;25.45;12.82;;;3.30;86.40;;;;;;4961473;28;20095;-85
2022/12/14 06:59:35;;;;;;;20.67;11.98;;;3.30;86.50;;;;;;4974198;28;20434;-85
2022/12/14 07:02:01;;;;;;;19.58;12.50;;;3.30;86.20;;;;;;4943844;29;20030;-86
2022/12/14 07:04:26;;;;;;;18.85;11.38;;;3.30;86.30;;;;;;4945337;29;20032;-86
2022/12/14 07:06:52;;;;;;;18.55;11.23;;;3.30;86.00;;;;;;4962851;29;20026;-86
2022/12/14 07:09:18;;;;;;;22.58;11.60;;;3.30;86.30;;;;;;4959019;29;20771;-86
2022/12/14 07:11:43;;;;;;;31.33;17.70;;;3.30;86.20;;;;;;4957014;29;20035;-86
2022/12/14 07:14:16;;;;;;;21.42;12.57;;;3.30;86.20;;;;;;4949397;28;20065;-86
2022/12/14 07:16:42;;;;;;;23.52;12.57;;;3.30;86.20;;;;;;4962725;28;20041;-85
2022/12/14 07:19:09;;;;;;;24.33;13.60;;;3.30;85.90;;;;;;4967357;28;20043;-86
2022/12/14 07:21:35;;;;;;;23.38;13.23;;;3.30;86.40;;;;;;4957689;29;20038;-85
2022/12/14 07:24:01;;;;;;;19.83;11.43;;;3.30;86.20;;;;;;4975508;28;20015;-86
2022/12/14 07:26:27;;;;;;;25.23;12.93;;;3.30;86.00;;;;;;4960805;28;20125;-86
2022/12/14 07:28:54;;;;;;;22.70;12.50;;;3.30;86.10;;;;;;4962992;28;20031;-86
2022/12/14 07:31:22;;;;;;;32.05;15.57;;;3.20;86.10;;;;;;4977744;28;20063;-86
2022/12/14 07:33:55;;;;;;;25.27;12.50;;;3.30;86.10;;;;;;4951011;29;20027;-86
2022/12/14 07:36:22;;;;;;;16.42;12.23;;;3.30;86.30;;;;;;4942333;29;20460;-84
2022/12/14 07:38:50;;;;;;;15.35;11.73;;;3.30;86.20;;;;;;4942497;28;20031;-83
2022/12/14 07:41:29;;;;;;;23.10;12.77;;;3.30;86.30;;;;;;4952542;29;20027;-84
2022/12/14 07:43:56;;;;;;;24.15;13.50;;;3.30;86.10;;;;;;4976445;28;20026;-86
2022/12/14 07:46:25;;;;;;;22.42;12.70;;;3.30;85.90;;;;;;4963450;28;20022;-85
2022/12/14 07:48:53;;;;;;;21.73;13.75;;;3.30;86.10;;;;;;4959542;28;20015;-84
2022/12/14 07:51:21;;;;;;;27.60;16.23;;;3.30;86.70;;;;;;4969824;28;20027;-83
2022/12/14 07:53:48;;;;;;;29.02;15.30;;;3.40;86.20;;;;;;4956504;29;20031;-84
2022/12/14 07:56:35;;;;;;;26.13;14.60;;;3.30;86.20;;;;;;4972119;28;20109;-83
2022/12/14 07:59:02;;;;;;;32.38;15.65;;;3.40;86.30;;;;;;4944395;29;20028;-83
2022/12/14 08:01:30;;;;;;;20.63;12.90;;;3.40;86.30;;;;;;4943041;28;20031;-84
2022/12/14 08:04:04;;;;;;;37.90;15.05;;;3.40;85.90;;;;;;4958705;28;20047;-83
2022/12/14 08:06:30;;;;;;;23.33;11.07;;;3.30;85.10;;;;;;4970650;28;20115;-83
2022/12/14 08:08:57;;;;;;;23.98;11.38;;;3.30;85.90;;;;;;4940665;29;20521;-83
2022/12/14 08:11:23;;;;;;;18.33;11.10;;;3.40;86.00;;;;;;4967552;28;20031;-83
2022/12/14 08:13:57;;;;;;;22.05;13.63;;;3.40;86.10;;;;;;4953351;29;20063;-83
2022/12/14 08:16:23;;;;;;;23.90;12.05;;;3.40;85.70;;;;;;4956603;28;20023;-83
2022/12/14 08:18:51;;;;;;;29.63;11.15;;;3.40;85.70;;;;;;4959146;28;20518;-84
2022/12/14 08:21:19;;;;;;;19.05;10.68;;;3.30;85.90;;;;;;4966003;28;20022;-83
2022/12/14 08:23:46;;;;;;;26.10;13.77;;;3.30;85.90;;;;;;4962533;28;20027;-83
2022/12/14 08:26:11;;;;;;;20.70;9.95;;;3.40;85.60;;;;;;4974962;28;20046;-81
2022/12/14 08:28:37;;;;;;;22.52;12.88;;;3.40;86.00;;;;;;4985048;28;20491;-80
2022/12/14 08:31:09;;;;;;;18.38;12.85;;;3.40;85.50;;;;;;4986813;28;20507;-84
2022/12/14 08:33:36;;;;;;;21.25;11.88;;;3.40;85.90;;;;;;4963500;28;20046;-84
2022/12/14 08:36:09;;;;;;;27.30;13.75;;;3.50;86.10;;;;;;4970257;28;20050;-83
2022/12/14 08:38:36;;;;;;;23.42;12.90;;;3.50;85.60;;;;;;4989308;28;20827;-84
2022/12/14 08:41:22;;;;;;;25.52;12.63;;;3.50;85.80;;;;;;4989107;28;20019;-87
2022/12/14 08:43:49;;;;;;;20.08;12.10;;;3.50;85.70;;;;;;4975724;28;20039;-83
2022/12/14 08:46:15;;;;;;;21.13;12.45;;;3.50;85.70;;;;;;4955009;28;20034;-83
2022/12/14 08:48:41;;;;;;;26.00;12.65;;;3.60;85.70;;;;;;4946162;29;20098;-83
2022/12/14 08:51:09;;;;;;;26.80;12.02;;;3.50;85.70;;;;;;4961144;28;20027;-83
2022/12/14 08:53:36;;;;;;;23.23;13.40;;;3.50;86.00;;;;;;4967127;28;20101;-83
2022/12/14 08:56:11;;;;;;;38.85;17.55;;;3.50;85.10;;;;;;4947806;29;20020;-83
2022/12/14 08:58:38;;;;;;;34.80;15.48;;;3.50;85.70;;;;;;4947956;28;20029;-83
2022/12/14 09:01:15;;;;;;;26.48;11.93;;;3.50;85.80;;;;;;4957705;28;20038;-83
2022/12/14 09:03:43;;;;;;;25.67;14.13;;;3.50;85.60;;;;;;4959148;28;20031;-83
2022/12/14 09:06:14;;;;;;;31.13;14.77;;;3.50;86.00;;;;;;4954321;29;20031;-83
2022/12/14 09:08:40;;;;;;;27.85;13.18;;;3.60;85.60;;;;;;4973770;28;20026;-83
2022/12/14 09:11:11;;;;;;;22.60;11.85;;;3.60;85.90;;;;;;4960387;28;20517;-83
2022/12/14 09:13:37;;;;;;;24.25;12.13;;;3.60;85.50;;;;;;4967486;28;20584;-82
2022/12/14 09:16:15;;;;;;;30.65;12.55;;;3.60;85.80;;;;;;4963223;28;20023;-80
2022/12/14 09:18:40;;;;;;;17.83;11.20;;;3.60;85.90;;;;;;4982644;28;20498;-81
2022/12/14 09:21:07;;;;;;;18.92;10.98;;;3.70;85.80;;;;;;4962515;28;20153;-81
2022/12/14 09:23:34;;;;;;;24.95;12.13;;;3.60;85.70;;;;;;4970505;28;20038;-81
2022/12/14 09:26:05;;;;;;;18.98;11.77;;;3.60;85.60;;;;;;4979117;28;20062;-82
2022/12/14 09:28:33;;;;;;;29.20;13.27;;;3.60;85.80;;;;;;4975130;28;20037;-83
2022/12/14 09:31:02;;;;;;;29.05;13.98;;;3.60;85.50;;;;;;4978651;28;20050;-83
2022/12/14 09:33:28;;;;;;;28.48;14.05;;;3.60;85.70;;;;;;4977602;28;20058;-81
2022/12/14 09:36:05;;;;;;;22.38;11.80;;;3.70;85.80;;;;;;4960487;29;20027;-81
2022/12/14 09:38:33;;;;;;;25.73;12.93;;;3.70;85.70;;;;;;4969223;28;20065;-82
2022/12/14 09:41:02;;;;;;;21.42;10.13;;;3.70;85.30;;;;;;4979012;28;20402;-82
2022/12/14 09:43:43;;;;;;;30.20;12.82;;;3.70;85.60;;;;;;4956908;29;20035;-82
2022/12/14 09:46:46;;;;;;;17.90;10.30;;;3.80;85.40;;;;;;4960283;29;20027;-82
2022/12/14 09:49:30;;;;;;;21.55;12.05;;;3.80;85.70;;;;;;4957329;28;20065;-82
2022/12/14 09:52:00;;;;;;;21.40;12.38;;;3.90;85.80;;;;;;4957560;29;20139;-82
2022/12/14 09:54:32;;;;;;;19.45;10.43;;;3.80;85.50;;;;;;4962322;28;20034;-82
2022/12/14 09:57:02;;;;;;;18.75;11.45;;;3.70;84.70;;;;;;4962705;28;20115;-82
2022/12/14 09:59:32;;;;;;;21.40;10.48;;;3.80;85.40;;;;;;4959894;29;20035;-81
2022/12/14 10:02:14;;;;;;;15.00;8.35;;;3.80;85.60;;;;;;4953983;29;20031;-81
2022/12/14 10:05:05;;;;;;;19.38;10.98;;;3.80;85.50;;;;;;4960202;29;20078;-82
2022/12/14 10:07:34;;;;;;;17.92;9.43;;;3.80;85.80;;;;;;4960744;28;20058;-82
2022/12/14 10:10:33;;;;;;;21.13;10.18;;;3.90;85.00;;;;;;4956802;29;20057;-82
2022/12/14 10:13:18;;;;;;;19.77;10.20;;;3.80;85.50;;;;;;4958631;29;20074;-82
2022/12/14 10:15:53;;;;;;;14.95;9.32;;;3.90;85.80;;;;;;4960033;29;20588;-82
2022/12/14 10:18:37;;;;;;;20.65;9.65;;;4.00;85.30;;;;;;4957304;29;20118;-82
2022/12/14 10:21:16;;;;;;;18.38;8.95;;;3.80;84.40;;;;;;4959701;29;20086;-82
2022/12/14 10:23:59;;;;;;;21.95;10.45;;;3.90;85.30;;;;;;4969923;28;20510;-82
2022/12/14 10:26:41;;;;;;;14.95;9.52;;;4.00;85.10;;;;;;4970285;28;20031;-82
2022/12/14 10:29:21;;;;;;;20.20;13.05;;;3.90;84.30;;;;;;4942284;29;20419;-82
2022/12/14 10:31:53;;;;;;;;;;;4.00;84.90;;;;;;4942290;29;20074;-81
2022/12/14 10:34:23;;;;;;;22.67;12.98;;;4.20;85.10;;;;;;4942383;29;19949;-81
2022/12/14 10:36:57;;;;;;;21.98;11.18;;;4.20;84.90;;;;;;4959134;28;20034;-81
2022/12/14 10:39:26;;;;;;;19.90;11.40;;;4.30;84.70;;;;;;4975307;28;20037;-81
2022/12/14 10:42:06;;;;;;;23.92;10.65;;;4.30;84.60;;;;;;4974494;28;20090;-81
2022/12/14 10:45:01;;;;;;;20.13;10.98;;;4.30;84.10;;;;;;4942190;29;20442;-81
2022/12/14 10:47:38;;;;;;;20.17;11.45;;;4.30;84.50;;;;;;4957977;29;20487;-81
2022/12/14 10:50:28;;;;;;;18.85;10.57;;;4.30;84.70;;;;;;4959266;29;20035;-81
2022/12/14 10:52:55;;;;;;;18.40;10.15;;;4.30;84.40;;;;;;4941311;29;20090;-80
2022/12/14 10:55:31;;;;;;;16.65;9.52;;;4.40;84.30;;;;;;4957552;29;20043;-81
2022/12/14 10:57:57;;;;;;;22.05;10.27;;;4.40;84.10;;;;;;4942058;29;20050;-81
2022/12/14 11:00:22;;;;;;;17.08;10.10;;;4.50;84.40;;;;;;4958386;28;20070;-81
2022/12/14 11:02:53;;;;;;;16.30;8.10;;;4.50;84.60;;;;;;4941813;29;20506;-81
2022/12/14 11:05:56;;;;;;;15.30;9.45;;;4.50;84.70;;;;;;4957545;28;20031;-81
2022/12/14 11:08:44;;;;;;;14.32;8.73;;;4.50;84.40;;;;;;4967090;28;20545;-81
2022/12/14 11:11:20;;;;;;;16.45;9.63;;;4.40;84.50;;;;;;4960443;28;20062;-81
2022/12/14 11:14:13;;;;;;;13.88;8.40;;;4.50;84.50;;;;;;4977964;28;20023;-81
2022/12/14 11:16:40;;;;;;;11.80;6.82;;;4.60;84.30;;;;;;4956960;28;20046;-81
2022/12/14 11:19:26;;;;;;;17.60;9.15;;;4.60;84.10;;;;;;4967020;28;21946;-81
2022/12/14 11:22:10;;;;;;;18.55;8.00;;;4.60;84.00;;;;;;4958052;29;20434;-81
2022/12/14 11:24:44;;;;;;;15.15;7.70;;;4.70;84.80;;;;;;4961189;28;20184;-81
2022/12/14 11:27:10;;;;;;;17.23;8.85;;;4.70;84.40;;;;;;4958418;28;20136;-81
2022/12/14 11:29:38;;;;;;;12.32;7.25;;;4.70;84.70;;;;;;4958599;29;20027;-81
2022/12/14 11:32:05;;;;;;;13.60;7.35;;;4.70;84.80;;;;;;4958173;28;20451;-81
2022/12/14 11:34:37;;;;;;;12.30;7.93;;;4.60;84.40;;;;;;4958629;28;20055;-81
2022/12/14 11:37:32;;;;;;;19.42;8.70;;;4.60;84.00;;;;;;4958356;29;20024;-81
2022/12/14 11:40:03;;;;;;;14.68;8.70;;;4.60;84.20;;;;;;4941748;28;20410;-81
2022/12/14 11:42:29;;;;;;;8.98;5.65;;;4.60;84.70;;;;;;4951059;28;20051;-82
2022/12/14 11:45:26;;;;;;;14.52;7.43;;;4.70;84.50;;;;;;4972835;28;20031;-83
2022/12/14 11:48:12;;;;;;;18.02;8.40;;;4.70;84.50;;;;;;4943192;28;20371;-82
2022/12/14 11:50:38;;;;;;;17.33;9.27;;;4.70;84.90;;;;;;4936815;29;20233;-82
2022/12/14 11:53:08;;;;;;;10.85;7.15;;;4.80;84.70;;;;;;4940735;29;20023;-82
2022/12/14 11:55:39;;;;;;;19.52;9.30;;;4.80;84.70;;;;;;4956737;29;20027;-82
2022/12/14 11:58:16;;;;;;;14.35;8.32;;;4.80;84.70;;;;;;4957924;28;20452;-82
2022/12/14 12:00:49;;;;;;;17.35;8.73;;;4.90;84.40;;;;;;4957872;29;20071;-83
2022/12/14 12:03:24;;;;;;;18.48;9.93;;;4.90;84.70;;;;;;4959902;28;20483;-83
2022/12/14 12:05:50;;;;;;;21.13;11.50;;;4.90;84.80;;;;;;4957563;29;20031;-83
2022/12/14 12:08:28;;;;;;;25.20;12.40;;;5.00;84.70;;;;;;4947725;28;20022;-83
2022/12/14 12:10:57;;;;;;;22.73;12.23;;;5.00;84.70;;;;;;4958236;28;20037;-84
2022/12/14 12:13:29;;;;;;;19.33;10.18;;;4.90;84.70;;;;;;4959391;28;20024;-83
2022/12/14 12:15:59;;;;;;;17.33;9.77;;;5.00;84.80;;;;;;4957686;28;20031;-83
2022/12/14 12:18:47;;;;;;;16.55;10.32;;;5.10;84.80;;;;;;4956581;28;20546;-83
2022/12/14 12:21:20;;;;;;;17.55;9.45;;;5.00;84.80;;;;;;4957697;29;20157;-82
2022/12/14 12:24:08;;;;;;;15.80;8.35;;;5.00;84.90;;;;;;4968491;28;20102;-82
2022/12/14 12:26:41;;;;;;;15.57;9.93;;;5.10;84.90;;;;;;4977041;28;20615;-82
2022/12/14 12:29:31;;;;;;;14.52;8.88;;;5.10;84.40;;;;;;4963504;28;20023;-82
2022/12/14 12:32:06;;;;;;;15.10;7.93;;;5.10;84.70;;;;;;4957238;29;20051;-84
2022/12/14 12:34:46;;;;;;;15.50;9.98;;;5.20;84.80;;;;;;4964012;28;20023;-80
2022/12/14 12:37:17;;;;;;;;;;;5.20;84.70;;;;;;4958282;28;20031;-82
2022/12/14 12:39:48;;;;;;;14.25;7.88;;;5.20;84.00;;;;;;4975820;28;19910;-86
2022/12/14 12:42:31;;;;;;;19.05;8.73;;;5.30;84.60;;;;;;4973208;28;20031;-80
2022/12/14 12:45:03;;;;;;;14.57;8.13;;;5.30;84.60;;;;;;4957481;29;20062;-81
2022/12/14 12:47:33;;;;;;;15.75;9.18;;;5.30;84.30;;;;;;4957120;28;20031;-80
2022/12/14 12:50:00;;;;;;;;;;;5.30;84.40;;;;;;4957476;28;20561;-80
2022/12/14 12:52:31;;;;;;;15.70;9.88;;;5.30;84.40;;;;;;4960527;29;19911;-80
2022/12/14 12:55:07;;;;;;;21.48;10.25;;;5.40;84.30;;;;;;4943818;29;20095;-81
2022/12/14 12:57:39;;;;;;;16.50;8.95;;;5.30;84.50;;;;;;4943652;28;20065;-80
2022/12/14 13:00:06;;;;;;;17.92;8.95;;;5.30;84.10;;;;;;4978946;28;20023;-81
2022/12/14 13:02:44;;;;;;;13.05;9.30;;;5.30;84.10;;;;;;4958540;29;20118;-81
2022/12/14 13:05:14;;;;;;;17.98;8.65;;;5.40;84.40;;;;;;4960888;29;20028;-80
2022/12/14 13:08:00;;;;;;;13.15;7.85;;;5.30;84.20;;;;;;4962039;28;20023;-81
2022/12/14 13:10:38;;;;;;;18.65;8.18;;;5.30;83.70;;;;;;4975421;28;20028;-81
2022/12/14 13:13:24;;;;;;;20.75;9.75;;;5.20;84.40;;;;;;4962890;28;20054;-80
2022/12/14 13:15:57;;;;;;;20.88;10.30;;;5.20;84.40;;;;;;4968757;28;20326;-81
2022/12/14 13:18:25;;;;;;;21.60;12.15;;;5.30;84.30;;;;;;4960707;29;20039;-80
2022/12/14 13:20:52;;;;;;;22.80;10.73;;;5.20;84.30;;;;;;4943287;28;20070;-80
2022/12/14 13:23:20;;;;;;;21.80;10.80;;;5.20;84.30;;;;;;4967986;28;20031;-81
2022/12/14 13:26:11;;;;;;;20.17;10.75;;;5.20;84.30;;;;;;4980129;28;20070;-81
2022/12/14 13:28:50;;;;;;;27.13;13.23;;;5.20;84.30;;;;;;4980246;28;20023;-81
2022/12/14 13:31:30;;;;;;;23.77;11.55;;;5.20;84.10;;;;;;4966411;28;20699;-81
2022/12/14 13:34:13;;;;;;;18.40;9.30;;;5.10;83.90;;;;;;4960410;29;20031;-81
2022/12/14 13:36:50;;;;;;;23.08;10.95;;;5.10;84.00;;;;;;4962105;28;20538;-82
2022/12/14 13:39:46;;;;;;;18.33;11.65;;;5.10;83.90;;;;;;4971687;28;20033;-82
2022/12/14 13:42:37;;;;;;;17.70;10.23;;;5.00;84.00;;;;;;4979198;28;20018;-82
2022/12/14 13:45:13;;;;;;;28.70;12.95;;;5.10;84.40;;;;;;4942477;29;20062;-82
2022/12/14 13:47:43;;;;;;;16.98;10.68;;;5.00;84.00;;;;;;4960382;29;20363;-81
2022/12/14 13:50:24;;;;;;;21.80;9.50;;;5.10;84.50;;;;;;4974982;28;20076;-82
2022/12/14 13:52:53;;;;;;;;;;;5.20;84.70;;;;;;4954899;29;20035;-81
2022/12/14 13:55:34;;;;;;;15.88;9.73;;;5.20;84.20;;;;;;4962150;28;19914;-82
2022/12/14 13:58:07;;;;;;;16.45;9.65;;;5.20;84.40;;;;;;4971850;28;20034;-82
2022/12/14 14:00:46;;;;;;;18.88;11.60;;;5.10;84.30;;;;;;4959904;28;20050;-82
2022/12/14 14:03:51;;;;;;;16.90;10.32;;;5.20;85.00;;;;;;4959440;28;20467;-82
2022/12/14 14:06:22;;;;;;;15.25;8.57;;;5.20;85.00;;;;;;4881276;29;20112;-82
2022/12/14 14:08:50;;;;;;;16.77;8.63;;;5.20;84.50;;;;;;4887272;29;20072;-81
2022/12/14 14:11:21;;;;;;;15.45;9.15;;;5.10;84.60;;;;;;4931102;28;20474;-82
2022/12/14 14:13:47;;;;;;;21.20;9.25;;;5.10;84.60;;;;;;4973456;28;20067;-81
2022/12/14 14:16:43;;;;;;;21.20;10.38;;;5.10;84.40;;;;;;4959337;29;20031;-82
2022/12/14 14:19:10;;;;;;;21.95;10.98;;;5.10;84.30;;;;;;4943397;28;20047;-81
2022/12/14 14:21:38;;;;;;;18.83;11.73;;;5.00;84.30;;;;;;4967186;28;20132;-82
2022/12/14 14:24:16;;;;;;;18.45;9.90;;;5.00;84.50;;;;;;4978314;28;20027;-82
2022/12/14 14:26:59;;;;;;;16.58;10.02;;;5.00;84.70;;;;;;4960350;28;20076;-82
2022/12/14 14:29:27;;;;;;;17.75;8.85;;;5.00;84.70;;;;;;4941906;29;20039;-82
2022/12/14 14:32:00;;;;;;;18.40;9.00;;;5.00;84.90;;;;;;4959080;28;20051;-82
2022/12/14 14:34:34;;;;;;;18.48;9.57;;;5.00;84.80;;;;;;4958918;28;20035;-82
2022/12/14 14:37:15;;;;;;;18.13;8.32;;;5.00;84.70;;;;;;4958983;29;20038;-81
2022/12/14 14:39:41;;;;;;;;;;;5.00;84.70;;;;;;4959856;28;20122;-82
2022/12/14 14:42:18;;;;;;;15.30;9.45;;;5.10;84.60;;;;;;4972094;28;19977;-81
2022/12/14 14:44:52;;;;;;;18.85;10.20;;;5.00;84.40;;;;;;4958439;28;20027;-82
2022/12/14 14:47:23;;;;;;;17.35;9.57;;;5.00;84.20;;;;;;4960169;28;20031;-82
2022/12/14 14:49:57;;;;;;;21.95;11.45;;;5.00;84.30;;;;;;4956472;29;20052;-82
2022/12/14 14:52:38;;;;;;;22.25;10.00;;;5.00;83.90;;;;;;4941617;29;20031;-81
2022/12/14 14:55:35;;;;;;;23.92;11.13;;;5.00;83.90;;;;;;4958552;29;20118;-81
2022/12/14 14:58:06;;;;;;;18.98;9.20;;;4.90;83.90;;;;;;4958725;28;20046;-81
2022/12/14 15:00:46;;;;;;;20.77;11.88;;;4.90;84.10;;;;;;4957355;29;20062;-82
2022/12/14 15:03:14;;;;;;;19.70;10.32;;;4.90;84.30;;;;;;4958493;28;20403;-82
2022/12/14 15:05:41;;;;;;;23.20;12.55;;;4.80;83.90;;;;;;4958801;29;20035;-82
2022/12/14 15:08:32;;;;;;;24.65;13.45;;;4.80;84.40;;;;;;4964509;28;20031;-82
2022/12/14 15:11:01;;;;;;;26.75;12.85;;;4.70;84.30;;;;;;4977666;28;20510;-82
2022/12/14 15:13:45;;;;;;;24.00;11.82;;;4.70;84.30;;;;;;4955479;28;20573;-82
2022/12/14 15:16:32;;;;;;;19.67;12.30;;;4.60;84.20;;;;;;4963528;28;20039;-82
2022/12/14 15:19:20;;;;;;;21.67;12.43;;;4.70;84.80;;;;;;4977643;28;20022;-82
2022/12/14 15:21:58;;;;;;;18.08;10.43;;;4.60;84.50;;;;;;4959428;28;20028;-81
2022/12/14 15:24:25;;;;;;;24.98;12.30;;;4.70;84.60;;;;;;4973198;28;20109;-83
2022/12/14 15:26:51;;;;;;;28.92;14.65;;;4.70;84.50;;;;;;4960012;28;20074;-81
2022/12/14 15:29:22;;;;;;;22.10;11.65;;;4.60;84.20;;;;;;4956201;28;20031;-82
2022/12/14 15:31:57;;;;;;;28.63;12.25;;;4.60;84.80;;;;;;4940565;29;20123;-82
2022/12/14 15:34:23;;;;;;;21.98;11.23;;;4.60;84.70;;;;;;4948284;28;20041;-82
2022/12/14 15:36:50;;;;;;;26.85;13.73;;;4.60;83.90;;;;;;4977573;28;20620;-82
2022/12/14 15:39:30;;;;;;;22.63;12.98;;;4.60;84.50;;;;;;4973896;28;20035;-82
2022/12/14 15:42:10;;;;;;;;;;;4.50;84.50;;;;;;4941431;29;20075;-82
2022/12/14 15:44:36;;;;;;;27.13;13.75;;;4.60;84.40;;;;;;4957817;28;19910;-82
2022/12/14 15:47:02;;;;;;;24.63;13.35;;;4.60;84.90;;;;;;4957857;29;20045;-81
2022/12/14 15:49:27;;;;;;;19.02;9.77;;;4.60;85.10;;;;;;4957775;29;20043;-81
2022/12/14 15:51:54;;;;;;;26.90;12.30;;;4.60;85.00;;;;;;4973320;28;20093;-82
2022/12/14 15:54:24;;;;;;;22.25;11.88;;;4.60;84.80;;;;;;4973891;28;20050;-81
2022/12/14 15:56:54;;;;;;;22.67;11.30;;;4.60;85.00;;;;;;4969812;28;20089;-81
2022/12/14 15:59:42;;;;;;;22.05;11.77;;;4.60;85.00;;;;;;4976550;28;20039;-81
2022/12/14 16:02:28;;;;;;;20.20;11.95;;;4.60;85.10;;;;;;4969895;28;20142;-81
2022/12/14 16:04:55;;;;;;;20.77;10.15;;;4.60;84.80;;;;;;4957646;29;20060;-81
2022/12/14 16:07:32;;;;;;;17.23;9.32;;;4.60;84.20;;;;;;4940446;29;20059;-82
2022/12/14 16:10:03;;;;;;;21.80;10.93;;;4.50;84.60;;;;;;4957056;28;20467;-82
2022/12/14 16:12:43;;;;;;;22.90;10.65;;;4.50;84.10;;;;;;4972815;28;20489;-82
2022/12/14 16:15:35;;;;;;;15.50;8.88;;;4.50;84.30;;;;;;4956635;28;20027;-82
2022/12/14 16:18:01;;;;;;;18.95;10.98;;;4.40;84.00;;;;;;4974719;28;20360;-82
2022/12/14 16:20:32;;;;;;;21.52;12.38;;;4.20;83.70;;;;;;4976179;28;20027;-82
2022/12/14 16:23:21;;;;;;;24.48;10.98;;;4.20;84.30;;;;;;4958764;28;20038;-82
2022/12/14 16:26:01;;;;;;;17.40;10.55;;;4.20;84.50;;;;;;4976573;28;20038;-82
2022/12/14 16:28:36;;;;;;;20.77;13.60;;;4.30;84.90;;;;;;4959517;28;20552;-83
2022/12/14 16:31:22;;;;;;;21.90;11.75;;;4.30;84.20;;;;;;4959558;28;20742;-82
2022/12/14 16:34:12;;;;;;;20.35;10.15;;;4.30;84.50;;;;;;4957775;29;20491;-82
2022/12/14 16:36:38;;;;;;;18.33;10.35;;;4.30;84.60;;;;;;4940053;29;20065;-82
2022/12/14 16:39:13;;;;;;;20.58;11.85;;;4.30;84.90;;;;;;4939709;29;20039;-81
2022/12/14 16:41:51;;;;;;;18.00;10.63;;;4.30;84.80;;;;;;4940012;29;20456;-82
2022/12/14 16:44:38;;;;;;;21.23;11.00;;;4.30;84.80;;;;;;4957132;28;20062;-81
2022/12/14 16:47:15;;;;;;;11.95;8.40;;;4.40;84.50;;;;;;4957107;29;20439;-80
2022/12/14 16:50:17;;;;;;;17.08;9.48;;;4.40;84.50;;;;;;4957093;29;20035;-80
2022/12/14 16:52:43;;;;;;;16.23;8.85;;;4.30;84.50;;;;;;4957466;28;20483;-80
2022/12/14 16:55:19;;;;;;;12.23;8.40;;;4.30;84.50;;;;;;4972666;28;20054;-81
2022/12/14 16:57:47;;;;;;;16.25;9.05;;;4.30;84.50;;;;;;4974950;28;20029;-79
2022/12/14 17:00:30;;;;;;;13.45;8.52;;;4.30;84.40;;;;;;4975801;28;20086;-79
2022/12/14 17:03:08;;;;;;;17.52;7.68;;;4.20;84.70;;;;;;4971035;28;20030;-76
2022/12/14 17:05:40;;;;;;;14.68;8.23;;;4.20;84.70;;;;;;4972119;28;20030;-79
2022/12/14 17:08:07;;;;;;;17.05;9.18;;;4.20;84.30;;;;;;4976488;28;20023;-79
2022/12/14 17:10:33;;;;;;;20.98;10.75;;;4.20;83.70;;;;;;4956451;28;20027;-78
2022/12/14 17:13:02;;;;;;;19.00;10.65;;;4.10;83.40;;;;;;4958207;28;20101;-79
2022/12/14 17:15:31;;;;;;;21.50;12.45;;;4.00;83.50;;;;;;4957864;28;20039;-78
2022/12/14 17:18:02;;;;;;;17.70;10.65;;;4.00;83.90;;;;;;4976474;28;20391;-78
2022/12/14 17:20:32;;;;;;;17.50;10.85;;;4.00;84.20;;;;;;4957228;28;20166;-79
2022/12/14 17:23:02;;;;;;;19.00;11.55;;;4.10;83.80;;;;;;4951219;28;20030;-84
2022/12/14 17:25:30;;;;;;;18.85;10.82;;;4.10;83.90;;;;;;4958105;28;20062;-80
2022/12/14 17:27:55;;;;;;;17.63;11.48;;;4.10;83.80;;;;;;4973205;28;20023;-80
2022/12/14 17:30:22;;;;;;;23.08;11.43;;;4.10;83.80;;;;;;4974076;28;20391;-79
2022/12/14 17:32:50;;;;;;;17.42;11.85;;;4.20;84.10;;;;;;4956817;29;20047;-79
2022/12/14 17:35:21;;;;;;;22.73;11.93;;;4.20;84.30;;;;;;4939526;29;20034;-79
2022/12/14 17:37:46;;;;;;;;;;;4.20;83.50;;;;;;4961897;28;20026;-79
2022/12/14 17:40:12;;;;;;;19.98;11.20;;;4.20;83.60;;;;;;4978993;28;19913;-79
2022/12/14 17:42:39;;;;;;;17.50;10.75;;;4.20;83.60;;;;;;4979490;28;20034;-80
2022/12/14 17:45:06;;;;;;;21.55;12.00;;;4.20;83.50;;;;;;4975806;28;20380;-80
2022/12/14 17:47:31;;;;;;;18.35;11.00;;;4.10;83.70;;;;;;4979365;28;20091;-79
2022/12/14 17:49:57;;;;;;;24.92;13.98;;;4.10;83.30;;;;;;4979303;28;20497;-79
2022/12/14 17:52:28;;;;;;;27.48;12.30;;;4.10;82.80;;;;;;4973244;28;20070;-79
2022/12/14 17:54:53;;;;;;;23.42;10.98;;;4.00;82.60;;;;;;4943120;28;20114;-79
2022/12/14 17:57:22;;;;;;;20.55;12.10;;;3.90;82.50;;;;;;4961733;28;20027;-79
2022/12/14 17:59:48;;;;;;;18.02;11.77;;;3.80;82.80;;;;;;4942453;29;20039;-79
2022/12/14 18:02:32;;;;;;;22.02;9.98;;;3.80;81.90;;;;;;4959648;28;20027;-79
2022/12/14 18:04:58;;;;;;;19.58;10.13;;;3.70;81.80;;;;;;4959927;29;20519;-79
2022/12/14 18:07:23;;;;;;;19.38;11.43;;;3.60;82.50;;;;;;4958502;28;20054;-79
2022/12/14 18:09:51;;;;;;;12.35;7.97;;;3.60;82.00;;;;;;4961546;28;20079;-80
2022/12/14 18:12:17;;;;;;;11.20;8.10;;;3.60;82.40;;;;;;4966494;28;20039;-79
2022/12/14 18:14:43;;;;;;;13.95;8.25;;;3.60;82.10;;;;;;4978896;28;20033;-80
2022/12/14 18:17:10;;;;;;;17.05;9.18;;;3.60;82.60;;;;;;4979326;28;20029;-82
2022/12/14 18:19:35;;;;;;;18.13;9.48;;;3.60;82.10;;;;;;4961176;28;20039;-78
2022/12/14 18:22:02;;;;;;;18.90;8.55;;;3.60;82.50;;;;;;4961610;28;20498;-76
2022/12/14 18:24:27;;;;;;;13.57;8.57;;;3.60;82.00;;;;;;4971114;28;20051;-80
2022/12/14 18:26:56;;;;;;;13.70;8.18;;;3.60;81.80;;;;;;4961333;29;20091;-82
2022/12/14 18:29:22;;;;;;;18.33;9.40;;;3.50;81.30;;;;;;4959628;29;20483;-86
2022/12/14 18:31:47;;;;;;;18.48;10.60;;;3.60;82.40;;;;;;4942095;28;20134;-79
2022/12/14 18:34:13;;;;;;;23.15;9.70;;;3.60;82.60;;;;;;4964447;28;20028;-83
2022/12/14 18:36:39;;;;;;;21.35;10.02;;;3.70;82.90;;;;;;4973549;28;20386;-81
2022/12/14 18:39:05;;;;;;;21.95;13.15;;;3.70;81.80;;;;;;4974761;28;20114;-79
2022/12/14 18:41:32;;;;;;;18.10;9.93;;;3.80;82.20;;;;;;4972071;28;20022;-76